Terminal Aerodrome Forecast
Issued by NWS

Home | Current Version | Previous Version | Text Only | Print | Product List | Glossary On
Versions: 1 2 3 4 5 6 7 8 9 10 11 12 13 14 15 16 17 18 19 20 21 22 23 24 25 26
000
FTUS45 KRIW 260500
TAFPNA
TAF
KPNA 260539Z 2606/2706 VRB05KT P6SM VCSH SCT035 BKN050
     FM261000 29006KT P6SM VCFG SCT005 SCT080
     FM261600 29009KT P6SM VCSH SCT035 BKN070
     FM262000 VRB10G18KT P6SM VCTS SCT030 BKN050CB
     FM270200 VRB05KT P6SM VCSH SCT040 BKN060
      AMD LTD TO CLD VIS AND WIND=

USA.gov is the U.S. government's official web portal to all federal, state and local government web resources and services.